sensor_id;sensor_type;location;lat;lon;timestamp;temperature;humidity
37874;DHT22;23709;48.078;11.684;2023-03-14T00:01:19;11.10;99.90
37874;DHT22;23709;48.078;11.684;2023-03-14T00:03:54;11.10;99.90
37874;DHT22;23709;48.078;11.684;2023-03-14T00:06:26;11.10;99.90
37874;DHT22;23709;48.078;11.684;2023-03-14T00:08:59;11.10;99.90
37874;DHT22;23709;48.078;11.684;2023-03-14T00:11:31;11.00;99.90
37874;DHT22;23709;48.078;11.684;2023-03-14T00:14:03;10.90;99.90
37874;DHT22;23709;48.078;11.684;2023-03-14T00:16:35;10.90;99.90
37874;DHT22;23709;48.078;11.684;2023-03-14T00:19:07;11.10;99.90
37874;DHT22;23709;48.078;11.684;2023-03-14T00:21:40;11.10;99.90
37874;DHT22;23709;48.078;11.684;2023-03-14T00:24:12;11.00;99.90
37874;DHT22;23709;48.078;11.684;2023-03-14T00:26:44;10.90;99.90
37874;DHT22;23709;48.078;11.684;2023-03-14T00:29:16;10.90;99.90
37874;DHT22;23709;48.078;11.684;2023-03-14T00:31:49;10.90;99.90
37874;DHT22;23709;48.078;11.684;2023-03-14T00:34:21;10.90;99.90
37874;DHT22;23709;48.078;11.684;2023-03-14T00:36:54;10.90;99.90
37874;DHT22;23709;48.078;11.684;2023-03-14T00:39:26;10.90;99.90
37874;DHT22;23709;48.078;11.684;2023-03-14T00:41:58;10.90;99.90
37874;DHT22;23709;48.078;11.684;2023-03-14T00:44:30;10.90;99.90
37874;DHT22;23709;48.078;11.684;2023-03-14T00:47:03;11.00;99.90
37874;DHT22;23709;48.078;11.684;2023-03-14T00:49:35;10.90;99.90
37874;DHT22;23709;48.078;11.684;2023-03-14T00:52:07;11.00;99.90
37874;DHT22;23709;48.078;11.684;2023-03-14T00:54:40;10.90;99.90
37874;DHT22;23709;48.078;11.684;2023-03-14T00:57:12;10.90;99.90
37874;DHT22;23709;48.078;11.684;2023-03-14T00:59:44;10.90;99.90
37874;DHT22;23709;48.078;11.684;2023-03-14T01:02:16;10.90;99.90
37874;DHT22;23709;48.078;11.684;2023-03-14T01:04:49;10.90;99.90
37874;DHT22;23709;48.078;11.684;2023-03-14T01:07:21;10.90;99.90
37874;DHT22;23709;48.078;11.684;2023-03-14T01:09:53;10.90;99.90
37874;DHT22;23709;48.078;11.684;2023-03-14T01:12:25;10.80;99.90
37874;DHT22;23709;48.078;11.684;2023-03-14T01:14:58;10.80;99.90
37874;DHT22;23709;48.078;11.684;2023-03-14T01:17:31;10.70;99.90
37874;DHT22;23709;48.078;11.684;2023-03-14T01:20:03;10.60;99.90
37874;DHT22;23709;48.078;11.684;2023-03-14T01:22:37;10.50;99.90
37874;DHT22;23709;48.078;11.684;2023-03-14T01:25:14;10.50;99.90
37874;DHT22;23709;48.078;11.684;2023-03-14T01:27:46;10.40;99.90
37874;DHT22;23709;48.078;11.684;2023-03-14T01:30:18;10.20;99.90
37874;DHT22;23709;48.078;11.684;2023-03-14T01:32:51;10.20;99.90
37874;DHT22;23709;48.078;11.684;2023-03-14T01:35:23;10.20;99.90
37874;DHT22;23709;48.078;11.684;2023-03-14T01:37:55;10.20;99.90
37874;DHT22;23709;48.078;11.684;2023-03-14T01:40:28;10.10;99.90
37874;DHT22;23709;48.078;11.684;2023-03-14T01:43:12;10.00;99.90
37874;DHT22;23709;48.078;11.684;2023-03-14T01:48:50;9.90;99.90
37874;DHT22;23709;48.078;11.684;2023-03-14T01:57:28;9.80;99.90
37874;DHT22;23709;48.078;11.684;2023-03-14T02:00:07;9.80;99.90
37874;DHT22;23709;48.078;11.684;2023-03-14T02:03:05;9.80;99.90
37874;DHT22;23709;48.078;11.684;2023-03-14T02:05:41;9.90;99.90
37874;DHT22;23709;48.078;11.684;2023-03-14T02:08:22;9.80;99.90
37874;DHT22;23709;48.078;11.684;2023-03-14T02:10:57;9.80;99.90
37874;DHT22;23709;48.078;11.684;2023-03-14T02:13:47;9.80;99.90
37874;DHT22;23709;48.078;11.684;2023-03-14T02:16:39;9.70;99.90
37874;DHT22;23709;48.078;11.684;2023-03-14T02:22:59;9.60;99.90
37874;DHT22;23709;48.078;11.684;2023-03-14T02:28:25;9.60;99.90
37874;DHT22;23709;48.078;11.684;2023-03-14T02:31:00;9.60;99.90
37874;DHT22;23709;48.078;11.684;2023-03-14T02:33:37;9.50;99.90
37874;DHT22;23709;48.078;11.684;2023-03-14T02:36:13;9.40;99.90
37874;DHT22;23709;48.078;11.684;2023-03-14T02:38:52;9.40;99.90
37874;DHT22;23709;48.078;11.684;2023-03-14T02:41:29;9.30;99.90
37874;DHT22;23709;48.078;11.684;2023-03-14T02:44:05;9.30;99.90
37874;DHT22;23709;48.078;11.684;2023-03-14T02:46:38;9.30;99.90
37874;DHT22;23709;48.078;11.684;2023-03-14T02:49:12;9.20;99.90
37874;DHT22;23709;48.078;11.684;2023-03-14T02:51:46;9.30;99.90
37874;DHT22;23709;48.078;11.684;2023-03-14T02:54:19;9.30;99.90
37874;DHT22;23709;48.078;11.684;2023-03-14T02:56:53;9.20;99.90
37874;DHT22;23709;48.078;11.684;2023-03-14T02:59:25;9.30;99.90
37874;DHT22;23709;48.078;11.684;2023-03-14T03:02:01;9.20;99.90
37874;DHT22;23709;48.078;11.684;2023-03-14T03:04:35;9.20;99.90
37874;DHT22;23709;48.078;11.684;2023-03-14T03:07:08;9.20;99.90
37874;DHT22;23709;48.078;11.684;2023-03-14T03:09:41;9.20;99.90
37874;DHT22;23709;48.078;11.684;2023-03-14T03:12:13;9.10;99.90
37874;DHT22;23709;48.078;11.684;2023-03-14T03:14:45;9.10;99.90
37874;DHT22;23709;48.078;11.684;2023-03-14T03:17:19;9.10;99.90
37874;DHT22;23709;48.078;11.684;2023-03-14T03:19:51;9.10;99.90
37874;DHT22;23709;48.078;11.684;2023-03-14T03:22:23;8.90;99.90
37874;DHT22;23709;48.078;11.684;2023-03-14T03:24:56;8.70;99.90
37874;DHT22;23709;48.078;11.684;2023-03-14T03:27:30;8.80;99.90
37874;DHT22;23709;48.078;11.684;2023-03-14T03:30:05;8.80;99.90
37874;DHT22;23709;48.078;11.684;2023-03-14T03:32:38;8.80;99.90
37874;DHT22;23709;48.078;11.684;2023-03-14T03:35:10;8.80;99.90
37874;DHT22;23709;48.078;11.684;2023-03-14T03:37:43;8.90;99.90
37874;DHT22;23709;48.078;11.684;2023-03-14T03:40:15;8.80;99.90
37874;DHT22;23709;48.078;11.684;2023-03-14T03:42:48;8.80;99.90
37874;DHT22;23709;48.078;11.684;2023-03-14T03:45:23;8.80;99.90
37874;DHT22;23709;48.078;11.684;2023-03-14T03:47:59;8.70;99.90
37874;DHT22;23709;48.078;11.684;2023-03-14T03:50:31;8.80;99.90
37874;DHT22;23709;48.078;11.684;2023-03-14T03:53:04;8.60;99.90
37874;DHT22;23709;48.078;11.684;2023-03-14T03:55:36;8.70;99.90
37874;DHT22;23709;48.078;11.684;2023-03-14T03:58:08;8.60;99.90
37874;DHT22;23709;48.078;11.684;2023-03-14T04:00:41;8.60;99.90
37874;DHT22;23709;48.078;11.684;2023-03-14T04:03:13;8.70;99.90
37874;DHT22;23709;48.078;11.684;2023-03-14T04:05:45;8.70;99.90
37874;DHT22;23709;48.078;11.684;2023-03-14T04:08:17;8.50;99.90
37874;DHT22;23709;48.078;11.684;2023-03-14T04:10:55;8.50;99.90
37874;DHT22;23709;48.078;11.684;2023-03-14T04:13:35;8.50;99.90
37874;DHT22;23709;48.078;11.684;2023-03-14T04:16:23;8.40;99.90
37874;DHT22;23709;48.078;11.684;2023-03-14T04:18:59;8.40;99.90
37874;DHT22;23709;48.078;11.684;2023-03-14T04:21:32;8.40;99.90
37874;DHT22;23709;48.078;11.684;2023-03-14T04:24:04;8.30;99.90
37874;DHT22;23709;48.078;11.684;2023-03-14T04:26:39;8.30;99.90
37874;DHT22;23709;48.078;11.684;2023-03-14T04:29:12;8.30;99.90
37874;DHT22;23709;48.078;11.684;2023-03-14T04:31:48;8.40;99.90
37874;DHT22;23709;48.078;11.684;2023-03-14T04:34:20;8.20;99.90
37874;DHT22;23709;48.078;11.684;2023-03-14T04:36:56;8.10;99.90
37874;DHT22;23709;48.078;11.684;2023-03-14T04:39:35;8.20;99.90
37874;DHT22;23709;48.078;11.684;2023-03-14T04:42:14;8.20;99.90
37874;DHT22;23709;48.078;11.684;2023-03-14T04:44:47;8.30;99.90
37874;DHT22;23709;48.078;11.684;2023-03-14T04:47:24;8.30;99.90
37874;DHT22;23709;48.078;11.684;2023-03-14T04:49:57;8.30;99.90
37874;DHT22;23709;48.078;11.684;2023-03-14T04:52:30;8.20;99.90
37874;DHT22;23709;48.078;11.684;2023-03-14T04:55:03;8.10;99.90
37874;DHT22;23709;48.078;11.684;2023-03-14T04:57:36;8.30;99.90
37874;DHT22;23709;48.078;11.684;2023-03-14T05:00:12;8.20;99.90
37874;DHT22;23709;48.078;11.684;2023-03-14T05:02:57;8.30;99.90
37874;DHT22;23709;48.078;11.684;2023-03-14T05:05:37;8.20;99.90
37874;DHT22;23709;48.078;11.684;2023-03-14T05:08:16;8.20;99.90
37874;DHT22;23709;48.078;11.684;2023-03-14T05:11:02;8.30;99.90
37874;DHT22;23709;48.078;11.684;2023-03-14T05:13:43;8.30;99.90
37874;DHT22;23709;48.078;11.684;2023-03-14T05:16:26;8.10;99.90
37874;DHT22;23709;48.078;11.684;2023-03-14T05:19:21;8.20;99.90
37874;DHT22;23709;48.078;11.684;2023-03-14T05:22:02;8.30;99.90
37874;DHT22;23709;48.078;11.684;2023-03-14T05:24:54;8.30;99.90
37874;DHT22;23709;48.078;11.684;2023-03-14T05:27:43;8.20;99.90
37874;DHT22;23709;48.078;11.684;2023-03-14T05:30:34;8.10;99.90
37874;DHT22;23709;48.078;11.684;2023-03-14T05:33:25;8.20;99.90
37874;DHT22;23709;48.078;11.684;2023-03-14T05:36:14;8.20;99.90
37874;DHT22;23709;48.078;11.684;2023-03-14T05:39:05;8.10;99.90
37874;DHT22;23709;48.078;11.684;2023-03-14T05:41:56;8.00;99.90
37874;DHT22;23709;48.078;11.684;2023-03-14T05:44:49;8.00;99.90
37874;DHT22;23709;48.078;11.684;2023-03-14T05:47:40;8.10;99.90
37874;DHT22;23709;48.078;11.684;2023-03-14T05:50:32;8.20;99.90
37874;DHT22;23709;48.078;11.684;2023-03-14T05:53:25;8.10;99.90
37874;DHT22;23709;48.078;11.684;2023-03-14T05:56:17;8.20;99.90
37874;DHT22;23709;48.078;11.684;2023-03-14T05:59:01;8.10;99.90
37874;DHT22;23709;48.078;11.684;2023-03-14T06:01:58;8.10;99.90
37874;DHT22;23709;48.078;11.684;2023-03-14T06:04:33;8.00;99.90
37874;DHT22;23709;48.078;11.684;2023-03-14T06:07:06;8.10;99.90
37874;DHT22;23709;48.078;11.684;2023-03-14T06:09:38;8.10;99.90
37874;DHT22;23709;48.078;11.684;2023-03-14T06:12:12;8.00;99.90
37874;DHT22;23709;48.078;11.684;2023-03-14T06:14:47;8.10;99.90
37874;DHT22;23709;48.078;11.684;2023-03-14T06:17:20;8.10;99.90
37874;DHT22;23709;48.078;11.684;2023-03-14T06:19:57;8.10;99.90
37874;DHT22;23709;48.078;11.684;2023-03-14T06:22:30;8.20;99.90
37874;DHT22;23709;48.078;11.684;2023-03-14T06:25:03;8.20;99.90
37874;DHT22;23709;48.078;11.684;2023-03-14T06:27:35;8.30;99.90
37874;DHT22;23709;48.078;11.684;2023-03-14T06:30:08;8.20;99.90
37874;DHT22;23709;48.078;11.684;2023-03-14T06:32:41;8.20;99.90
37874;DHT22;23709;48.078;11.684;2023-03-14T06:35:17;8.30;99.90
37874;DHT22;23709;48.078;11.684;2023-03-14T06:37:49;8.20;99.90
37874;DHT22;23709;48.078;11.684;2023-03-14T06:40:22;8.30;99.90
37874;DHT22;23709;48.078;11.684;2023-03-14T06:43:11;8.30;99.90
37874;DHT22;23709;48.078;11.684;2023-03-14T06:45:46;8.30;99.90
37874;DHT22;23709;48.078;11.684;2023-03-14T06:48:18;8.30;99.90
37874;DHT22;23709;48.078;11.684;2023-03-14T06:50:56;8.30;99.90
37874;DHT22;23709;48.078;11.684;2023-03-14T06:53:28;8.40;99.90
37874;DHT22;23709;48.078;11.684;2023-03-14T06:56:03;8.60;99.90
37874;DHT22;23709;48.078;11.684;2023-03-14T06:58:37;8.60;99.90
37874;DHT22;23709;48.078;11.684;2023-03-14T07:01:22;8.50;99.90
37874;DHT22;23709;48.078;11.684;2023-03-14T07:03:55;8.50;99.90
37874;DHT22;23709;48.078;11.684;2023-03-14T07:06:29;8.50;99.90
37874;DHT22;23709;48.078;11.684;2023-03-14T07:09:01;8.50;99.90
37874;DHT22;23709;48.078;11.684;2023-03-14T07:11:38;8.50;99.90
37874;DHT22;23709;48.078;11.684;2023-03-14T07:14:11;8.50;99.90
37874;DHT22;23709;48.078;11.684;2023-03-14T07:16:43;8.50;99.90
37874;DHT22;23709;48.078;11.684;2023-03-14T07:19:15;8.50;99.90
37874;DHT22;23709;48.078;11.684;2023-03-14T07:21:47;8.50;99.90
37874;DHT22;23709;48.078;11.684;2023-03-14T07:24:25;8.60;99.90
37874;DHT22;23709;48.078;11.684;2023-03-14T07:26:57;8.60;99.90
37874;DHT22;23709;48.078;11.684;2023-03-14T07:29:42;8.60;99.90
37874;DHT22;23709;48.078;11.684;2023-03-14T07:32:14;8.60;99.90
37874;DHT22;23709;48.078;11.684;2023-03-14T07:34:48;8.70;99.90
37874;DHT22;23709;48.078;11.684;2023-03-14T07:37:20;8.70;99.90
37874;DHT22;23709;48.078;11.684;2023-03-14T07:39:52;8.80;99.90
37874;DHT22;23709;48.078;11.684;2023-03-14T07:42:28;8.80;99.90
37874;DHT22;23709;48.078;11.684;2023-03-14T07:45:15;8.90;99.90
37874;DHT22;23709;48.078;11.684;2023-03-14T07:47:49;8.90;99.90
37874;DHT22;23709;48.078;11.684;2023-03-14T07:50:21;9.00;99.90
37874;DHT22;23709;48.078;11.684;2023-03-14T07:52:54;9.00;99.90
37874;DHT22;23709;48.078;11.684;2023-03-14T07:55:26;9.10;99.90
37874;DHT22;23709;48.078;11.684;2023-03-14T07:57:58;9.10;99.90
37874;DHT22;23709;48.078;11.684;2023-03-14T08:00:30;9.20;99.90
37874;DHT22;23709;48.078;11.684;2023-03-14T08:03:02;9.20;99.90
37874;DHT22;23709;48.078;11.684;2023-03-14T08:05:36;9.30;99.90
37874;DHT22;23709;48.078;11.684;2023-03-14T08:08:08;9.30;99.90
37874;DHT22;23709;48.078;11.684;2023-03-14T08:10:41;9.30;99.90
37874;DHT22;23709;48.078;11.684;2023-03-14T08:13:13;9.40;99.90
37874;DHT22;23709;48.078;11.684;2023-03-14T08:15:48;9.40;99.90
37874;DHT22;23709;48.078;11.684;2023-03-14T08:18:21;9.40;99.90
37874;DHT22;23709;48.078;11.684;2023-03-14T08:20:53;9.50;99.90
37874;DHT22;23709;48.078;11.684;2023-03-14T08:23:25;9.50;99.90
37874;DHT22;23709;48.078;11.684;2023-03-14T08:25:57;9.60;99.90
37874;DHT22;23709;48.078;11.684;2023-03-14T08:28:29;9.60;99.90
37874;DHT22;23709;48.078;11.684;2023-03-14T08:31:04;9.60;99.90
37874;DHT22;23709;48.078;11.684;2023-03-14T08:33:36;9.60;99.90
37874;DHT22;23709;48.078;11.684;2023-03-14T08:36:09;9.70;99.90
37874;DHT22;23709;48.078;11.684;2023-03-14T08:38:42;9.80;99.90
37874;DHT22;23709;48.078;11.684;2023-03-14T08:41:14;9.80;99.90
37874;DHT22;23709;48.078;11.684;2023-03-14T08:43:46;9.80;99.90
37874;DHT22;23709;48.078;11.684;2023-03-14T08:46:19;9.80;99.90
37874;DHT22;23709;48.078;11.684;2023-03-14T08:48:51;9.80;99.90
37874;DHT22;23709;48.078;11.684;2023-03-14T08:51:23;10.00;99.90
37874;DHT22;23709;48.078;11.684;2023-03-14T08:53:55;10.00;99.90
37874;DHT22;23709;48.078;11.684;2023-03-14T08:56:27;10.00;99.90
37874;DHT22;23709;48.078;11.684;2023-03-14T08:58:59;10.00;99.90
37874;DHT22;23709;48.078;11.684;2023-03-14T09:01:32;10.10;99.90
37874;DHT22;23709;48.078;11.684;2023-03-14T09:04:04;10.10;99.90
37874;DHT22;23709;48.078;11.684;2023-03-14T09:06:37;10.10;99.90
37874;DHT22;23709;48.078;11.684;2023-03-14T09:09:09;10.10;99.90
37874;DHT22;23709;48.078;11.684;2023-03-14T09:11:42;10.10;99.90
37874;DHT22;23709;48.078;11.684;2023-03-14T09:14:14;10.10;99.90
37874;DHT22;23709;48.078;11.684;2023-03-14T09:16:46;10.10;99.90
37874;DHT22;23709;48.078;11.684;2023-03-14T09:19:18;10.10;99.90
37874;DHT22;23709;48.078;11.684;2023-03-14T09:21:50;10.10;99.90
37874;DHT22;23709;48.078;11.684;2023-03-14T09:24:22;10.00;99.90
37874;DHT22;23709;48.078;11.684;2023-03-14T09:26:55;10.10;99.90
37874;DHT22;23709;48.078;11.684;2023-03-14T09:29:28;10.10;99.90
37874;DHT22;23709;48.078;11.684;2023-03-14T09:32:01;10.00;99.90
37874;DHT22;23709;48.078;11.684;2023-03-14T09:34:33;10.00;99.90
37874;DHT22;23709;48.078;11.684;2023-03-14T09:37:08;10.00;99.90
37874;DHT22;23709;48.078;11.684;2023-03-14T09:39:40;10.00;99.90
37874;DHT22;23709;48.078;11.684;2023-03-14T09:42:18;9.90;99.90
37874;DHT22;23709;48.078;11.684;2023-03-14T09:45:03;9.90;99.90
37874;DHT22;23709;48.078;11.684;2023-03-14T09:47:38;9.90;99.90
37874;DHT22;23709;48.078;11.684;2023-03-14T09:50:42;10.00;99.90
37874;DHT22;23709;48.078;11.684;2023-03-14T09:53:17;9.90;99.90
37874;DHT22;23709;48.078;11.684;2023-03-14T09:55:50;10.00;99.90
37874;DHT22;23709;48.078;11.684;2023-03-14T09:58:25;10.00;99.90
37874;DHT22;23709;48.078;11.684;2023-03-14T10:00:58;10.00;99.90
37874;DHT22;23709;48.078;11.684;2023-03-14T10:03:34;10.00;99.90
37874;DHT22;23709;48.078;11.684;2023-03-14T10:06:13;10.10;99.90
37874;DHT22;23709;48.078;11.684;2023-03-14T10:08:48;10.20;99.90
37874;DHT22;23709;48.078;11.684;2023-03-14T10:11:20;10.20;99.90
37874;DHT22;23709;48.078;11.684;2023-03-14T10:14:09;10.30;99.90
37874;DHT22;23709;48.078;11.684;2023-03-14T10:16:45;10.30;99.90
37874;DHT22;23709;48.078;11.684;2023-03-14T10:19:18;10.40;99.90
37874;DHT22;23709;48.078;11.684;2023-03-14T10:21:53;10.50;99.90
37874;DHT22;23709;48.078;11.684;2023-03-14T10:27:18;10.70;99.90
37874;DHT22;23709;48.078;11.684;2023-03-14T10:29:53;10.80;99.90
37874;DHT22;23709;48.078;11.684;2023-03-14T10:37:48;11.30;99.90
37874;DHT22;23709;48.078;11.684;2023-03-14T10:40:59;11.40;98.80
37874;DHT22;23709;48.078;11.684;2023-03-14T10:43:33;11.40;98.30
37874;DHT22;23709;48.078;11.684;2023-03-14T10:46:09;11.40;97.70
37874;DHT22;23709;48.078;11.684;2023-03-14T10:49:05;11.60;98.60
37874;DHT22;23709;48.078;11.684;2023-03-14T10:51:38;11.80;95.50
37874;DHT22;23709;48.078;11.684;2023-03-14T10:54:20;11.80;97.60
37874;DHT22;23709;48.078;11.684;2023-03-14T10:56:57;12.00;94.50
37874;DHT22;23709;48.078;11.684;2023-03-14T10:59:36;12.00;93.70
37874;DHT22;23709;48.078;11.684;2023-03-14T11:02:27;12.10;94.50
37874;DHT22;23709;48.078;11.684;2023-03-14T11:07:45;12.00;93.00
37874;DHT22;23709;48.078;11.684;2023-03-14T11:10:34;12.00;91.60
37874;DHT22;23709;48.078;11.684;2023-03-14T11:27:22;11.90;92.60
37874;DHT22;23709;48.078;11.684;2023-03-14T11:33:08;11.90;92.10
37874;DHT22;23709;48.078;11.684;2023-03-14T11:38:37;12.20;91.60
37874;DHT22;23709;48.078;11.684;2023-03-14T11:41:19;12.30;89.10
37874;DHT22;23709;48.078;11.684;2023-03-14T11:44:00;12.50;87.60
37874;DHT22;23709;48.078;11.684;2023-03-14T11:46:38;12.50;83.20
37874;DHT22;23709;48.078;11.684;2023-03-14T11:55:27;13.00;76.50
37874;DHT22;23709;48.078;11.684;2023-03-14T11:58:20;12.90;75.60
37874;DHT22;23709;48.078;11.684;2023-03-14T12:00:57;13.00;74.60
37874;DHT22;23709;48.078;11.684;2023-03-14T12:03:45;12.90;76.90
37874;DHT22;23709;48.078;11.684;2023-03-14T12:06:32;12.90;76.70
37874;DHT22;23709;48.078;11.684;2023-03-14T12:09:06;13.00;77.30
37874;DHT22;23709;48.078;11.684;2023-03-14T12:14:36;13.10;72.30
37874;DHT22;23709;48.078;11.684;2023-03-14T12:17:33;13.10;72.60
37874;DHT22;23709;48.078;11.684;2023-03-14T12:20:18;13.20;72.70
37874;DHT22;23709;48.078;11.684;2023-03-14T12:22:53;13.30;74.20
37874;DHT22;23709;48.078;11.684;2023-03-14T12:25:29;13.30;72.30
37874;DHT22;23709;48.078;11.684;2023-03-14T12:28:21;13.60;73.10
37874;DHT22;23709;48.078;11.684;2023-03-14T12:30:53;13.80;70.50
37874;DHT22;23709;48.078;11.684;2023-03-14T12:33:29;13.60;70.40
37874;DHT22;23709;48.078;11.684;2023-03-14T12:36:03;13.50;71.50
37874;DHT22;23709;48.078;11.684;2023-03-14T12:41:42;13.40;72.40
37874;DHT22;23709;48.078;11.684;2023-03-14T12:49:51;13.30;71.50
37874;DHT22;23709;48.078;11.684;2023-03-14T12:52:52;13.10;72.00
37874;DHT22;23709;48.078;11.684;2023-03-14T12:55:36;12.90;72.20
37874;DHT22;23709;48.078;11.684;2023-03-14T12:58:35;13.10;72.90
37874;DHT22;23709;48.078;11.684;2023-03-14T13:01:16;13.20;71.30
37874;DHT22;23709;48.078;11.684;2023-03-14T13:03:54;13.30;71.90
37874;DHT22;23709;48.078;11.684;2023-03-14T13:12:13;13.40;70.90
37874;DHT22;23709;48.078;11.684;2023-03-14T13:14:49;13.20;72.50
37874;DHT22;23709;48.078;11.684;2023-03-14T13:17:27;12.90;74.50
37874;DHT22;23709;48.078;11.684;2023-03-14T13:20:16;12.80;74.40
37874;DHT22;23709;48.078;11.684;2023-03-14T13:22:50;12.80;74.60
37874;DHT22;23709;48.078;11.684;2023-03-14T13:25:22;12.70;74.50
37874;DHT22;23709;48.078;11.684;2023-03-14T13:27:55;12.60;74.80
37874;DHT22;23709;48.078;11.684;2023-03-14T13:30:35;12.60;76.00
37874;DHT22;23709;48.078;11.684;2023-03-14T13:33:14;12.40;75.90
37874;DHT22;23709;48.078;11.684;2023-03-14T13:35:53;12.30;75.10
37874;DHT22;23709;48.078;11.684;2023-03-14T13:38:28;12.20;75.40
37874;DHT22;23709;48.078;11.684;2023-03-14T13:41:06;12.10;76.40
37874;DHT22;23709;48.078;11.684;2023-03-14T13:43:40;12.00;77.00
37874;DHT22;23709;48.078;11.684;2023-03-14T13:46:16;11.90;77.40
37874;DHT22;23709;48.078;11.684;2023-03-14T13:48:57;12.00;78.90
37874;DHT22;23709;48.078;11.684;2023-03-14T13:51:30;11.90;78.60
37874;DHT22;23709;48.078;11.684;2023-03-14T13:54:14;11.80;79.30
37874;DHT22;23709;48.078;11.684;2023-03-14T13:56:47;11.60;81.30
37874;DHT22;23709;48.078;11.684;2023-03-14T13:59:34;11.50;82.40
37874;DHT22;23709;48.078;11.684;2023-03-14T14:02:13;11.50;83.90
37874;DHT22;23709;48.078;11.684;2023-03-14T14:04:49;11.40;85.80
37874;DHT22;23709;48.078;11.684;2023-03-14T14:07:21;11.00;89.20
37874;DHT22;23709;48.078;11.684;2023-03-14T14:09:54;10.80;91.70
37874;DHT22;23709;48.078;11.684;2023-03-14T14:12:30;10.50;93.20
37874;DHT22;23709;48.078;11.684;2023-03-14T14:15:22;10.20;97.20
37874;DHT22;23709;48.078;11.684;2023-03-14T14:18:02;9.90;99.90
37874;DHT22;23709;48.078;11.684;2023-03-14T14:20:44;9.80;99.90
37874;DHT22;23709;48.078;11.684;2023-03-14T14:23:22;9.50;99.90
37874;DHT22;23709;48.078;11.684;2023-03-14T14:25:57;9.30;99.90
37874;DHT22;23709;48.078;11.684;2023-03-14T14:28:35;9.20;99.90
37874;DHT22;23709;48.078;11.684;2023-03-14T14:33:54;8.90;99.90
37874;DHT22;23709;48.078;11.684;2023-03-14T14:36:32;8.80;99.90
37874;DHT22;23709;48.078;11.684;2023-03-14T14:39:23;8.50;99.90
37874;DHT22;23709;48.078;11.684;2023-03-14T14:41:56;8.30;99.90
37874;DHT22;23709;48.078;11.684;2023-03-14T14:44:31;7.90;99.90
37874;DHT22;23709;48.078;11.684;2023-03-14T14:47:04;7.80;99.90
37874;DHT22;23709;48.078;11.684;2023-03-14T14:49:37;7.70;99.90
37874;DHT22;23709;48.078;11.684;2023-03-14T14:52:58;7.60;99.90
37874;DHT22;23709;48.078;11.684;2023-03-14T14:55:19;7.60;99.90
37874;DHT22;23709;48.078;11.684;2023-03-14T14:57:55;7.40;99.90
37874;DHT22;23709;48.078;11.684;2023-03-14T15:00:28;7.50;99.90
37874;DHT22;23709;48.078;11.684;2023-03-14T15:03:01;7.40;99.90
37874;DHT22;23709;48.078;11.684;2023-03-14T15:05:33;7.40;99.90
37874;DHT22;23709;48.078;11.684;2023-03-14T15:08:10;7.40;99.90
37874;DHT22;23709;48.078;11.684;2023-03-14T15:10:42;7.40;99.90
37874;DHT22;23709;48.078;11.684;2023-03-14T15:13:14;7.40;99.90
37874;DHT22;23709;48.078;11.684;2023-03-14T15:15:48;7.40;99.90
37874;DHT22;23709;48.078;11.684;2023-03-14T15:18:27;7.50;99.90
37874;DHT22;23709;48.078;11.684;2023-03-14T15:21:02;7.60;99.90
37874;DHT22;23709;48.078;11.684;2023-03-14T15:23:34;7.70;99.90
37874;DHT22;23709;48.078;11.684;2023-03-14T15:26:15;7.80;99.90
37874;DHT22;23709;48.078;11.684;2023-03-14T15:28:47;7.60;99.90
37874;DHT22;23709;48.078;11.684;2023-03-14T15:31:20;7.60;99.90
37874;DHT22;23709;48.078;11.684;2023-03-14T15:33:55;7.50;99.90
37874;DHT22;23709;48.078;11.684;2023-03-14T15:36:30;7.60;99.90
37874;DHT22;23709;48.078;11.684;2023-03-14T15:39:05;7.60;99.90
37874;DHT22;23709;48.078;11.684;2023-03-14T15:41:38;7.70;99.90
37874;DHT22;23709;48.078;11.684;2023-03-14T15:44:10;7.60;99.90
37874;DHT22;23709;48.078;11.684;2023-03-14T15:46:43;7.70;99.90
37874;DHT22;23709;48.078;11.684;2023-03-14T15:49:15;7.70;99.90
37874;DHT22;23709;48.078;11.684;2023-03-14T15:51:47;7.70;99.90
37874;DHT22;23709;48.078;11.684;2023-03-14T15:54:20;7.70;99.90
37874;DHT22;23709;48.078;11.684;2023-03-14T15:56:53;7.70;99.90
37874;DHT22;23709;48.078;11.684;2023-03-14T15:59:26;7.70;99.90
37874;DHT22;23709;48.078;11.684;2023-03-14T16:01:58;7.70;99.90
37874;DHT22;23709;48.078;11.684;2023-03-14T16:04:30;7.70;99.90
37874;DHT22;23709;48.078;11.684;2023-03-14T16:07:03;7.60;99.90
37874;DHT22;23709;48.078;11.684;2023-03-14T16:09:35;7.50;99.90
37874;DHT22;23709;48.078;11.684;2023-03-14T16:12:07;7.30;99.90
37874;DHT22;23709;48.078;11.684;2023-03-14T16:14:41;7.10;99.90
37874;DHT22;23709;48.078;11.684;2023-03-14T16:17:15;7.10;99.90
37874;DHT22;23709;48.078;11.684;2023-03-14T16:19:47;7.10;99.90
37874;DHT22;23709;48.078;11.684;2023-03-14T16:22:20;7.10;99.90
37874;DHT22;23709;48.078;11.684;2023-03-14T16:24:52;7.10;99.90
37874;DHT22;23709;48.078;11.684;2023-03-14T16:27:24;7.10;99.90
37874;DHT22;23709;48.078;11.684;2023-03-14T16:29:57;7.10;99.90
37874;DHT22;23709;48.078;11.684;2023-03-14T16:32:31;7.20;99.90
37874;DHT22;23709;48.078;11.684;2023-03-14T16:35:05;7.20;99.90
37874;DHT22;23709;48.078;11.684;2023-03-14T16:37:38;7.20;99.90
37874;DHT22;23709;48.078;11.684;2023-03-14T16:40:10;7.20;99.90
37874;DHT22;23709;48.078;11.684;2023-03-14T16:42:44;7.20;99.90
37874;DHT22;23709;48.078;11.684;2023-03-14T16:45:36;7.20;99.90
37874;DHT22;23709;48.078;11.684;2023-03-14T16:48:09;7.20;99.90
37874;DHT22;23709;48.078;11.684;2023-03-14T16:50:42;7.20;99.90
37874;DHT22;23709;48.078;11.684;2023-03-14T16:53:14;7.00;99.90
37874;DHT22;23709;48.078;11.684;2023-03-14T16:55:46;7.00;99.90
37874;DHT22;23709;48.078;11.684;2023-03-14T16:58:21;6.70;99.90
37874;DHT22;23709;48.078;11.684;2023-03-14T17:00:54;6.60;99.90
37874;DHT22;23709;48.078;11.684;2023-03-14T17:03:29;6.60;99.90
37874;DHT22;23709;48.078;11.684;2023-03-14T17:06:01;6.60;99.90
37874;DHT22;23709;48.078;11.684;2023-03-14T17:08:34;6.60;99.90
37874;DHT22;23709;48.078;11.684;2023-03-14T17:11:08;6.60;99.90
37874;DHT22;23709;48.078;11.684;2023-03-14T17:13:40;6.60;99.90
37874;DHT22;23709;48.078;11.684;2023-03-14T17:16:13;6.70;99.90
37874;DHT22;23709;48.078;11.684;2023-03-14T17:18:45;6.70;99.90
37874;DHT22;23709;48.078;11.684;2023-03-14T17:21:18;6.70;99.90
37874;DHT22;23709;48.078;11.684;2023-03-14T17:23:50;6.70;99.90
37874;DHT22;23709;48.078;11.684;2023-03-14T17:26:22;6.70;99.90
37874;DHT22;23709;48.078;11.684;2023-03-14T17:28:54;6.70;97.00
37874;DHT22;23709;48.078;11.684;2023-03-14T17:31:27;6.70;96.50
37874;DHT22;23709;48.078;11.684;2023-03-14T17:33:59;6.80;96.00